sensor_id;sensor_type;location;lat;lon;timestamp;temperature;humidity
53880;DHT22;39791;53.184;5.486;2022-11-23T00:00:54;10.40;99.90
53880;DHT22;39791;53.184;5.486;2022-11-23T00:03:20;10.30;99.90
53880;DHT22;39791;53.184;5.486;2022-11-23T00:05:45;10.30;99.90
53880;DHT22;39791;53.184;5.486;2022-11-23T00:08:11;10.40;99.90
53880;DHT22;39791;53.184;5.486;2022-11-23T00:10:36;10.30;99.90
53880;DHT22;39791;53.184;5.486;2022-11-23T00:13:02;10.50;99.90
53880;DHT22;39791;53.184;5.486;2022-11-23T00:15:27;10.50;99.90
53880;DHT22;39791;53.184;5.486;2022-11-23T00:17:53;10.50;99.90
53880;DHT22;39791;53.184;5.486;2022-11-23T00:20:19;10.40;99.90
53880;DHT22;39791;53.184;5.486;2022-11-23T00:22:44;10.60;99.90
53880;DHT22;39791;53.184;5.486;2022-11-23T00:25:10;10.60;99.90
53880;DHT22;39791;53.184;5.486;2022-11-23T00:27:35;10.40;99.90
53880;DHT22;39791;53.184;5.486;2022-11-23T00:30:01;10.60;99.90
53880;DHT22;39791;53.184;5.486;2022-11-23T00:32:28;10.70;99.90
53880;DHT22;39791;53.184;5.486;2022-11-23T00:34:54;10.70;99.90
53880;DHT22;39791;53.184;5.486;2022-11-23T00:37:19;10.80;99.90
53880;DHT22;39791;53.184;5.486;2022-11-23T00:39:45;10.60;99.90
53880;DHT22;39791;53.184;5.486;2022-11-23T00:42:10;10.80;99.90
53880;DHT22;39791;53.184;5.486;2022-11-23T00:44:36;10.60;99.90
53880;DHT22;39791;53.184;5.486;2022-11-23T00:47:01;10.80;99.90
53880;DHT22;39791;53.184;5.486;2022-11-23T00:49:27;10.60;99.90
53880;DHT22;39791;53.184;5.486;2022-11-23T00:51:52;10.70;99.90
53880;DHT22;39791;53.184;5.486;2022-11-23T00:54:18;10.80;99.90
53880;DHT22;39791;53.184;5.486;2022-11-23T00:56:43;10.70;99.90
53880;DHT22;39791;53.184;5.486;2022-11-23T00:59:09;10.80;99.90
53880;DHT22;39791;53.184;5.486;2022-11-23T01:01:35;10.80;99.90
53880;DHT22;39791;53.184;5.486;2022-11-23T01:04:05;10.70;99.90
53880;DHT22;39791;53.184;5.486;2022-11-23T01:06:37;10.90;99.90
53880;DHT22;39791;53.184;5.486;2022-11-23T01:09:14;10.80;99.90
53880;DHT22;39791;53.184;5.486;2022-11-23T01:11:42;10.60;99.90
53880;DHT22;39791;53.184;5.486;2022-11-23T01:14:08;10.80;99.90
53880;DHT22;39791;53.184;5.486;2022-11-23T01:16:39;10.70;99.90
53880;DHT22;39791;53.184;5.486;2022-11-23T01:19:07;10.70;99.90
53880;DHT22;39791;53.184;5.486;2022-11-23T01:21:34;10.80;99.90
53880;DHT22;39791;53.184;5.486;2022-11-23T01:24:02;10.70;99.90
53880;DHT22;39791;53.184;5.486;2022-11-23T01:26:28;10.80;99.90
53880;DHT22;39791;53.184;5.486;2022-11-23T01:28:53;10.60;99.90
53880;DHT22;39791;53.184;5.486;2022-11-23T01:31:21;10.70;99.90
53880;DHT22;39791;53.184;5.486;2022-11-23T01:33:52;10.80;99.90
53880;DHT22;39791;53.184;5.486;2022-11-23T01:36:20;10.50;99.90
53880;DHT22;39791;53.184;5.486;2022-11-23T01:38:47;10.50;99.90
53880;DHT22;39791;53.184;5.486;2022-11-23T01:41:15;10.60;99.90
53880;DHT22;39791;53.184;5.486;2022-11-23T01:43:41;10.50;99.90
53880;DHT22;39791;53.184;5.486;2022-11-23T01:46:07;10.70;99.90
53880;DHT22;39791;53.184;5.486;2022-11-23T01:51:13;10.50;99.90
53880;DHT22;39791;53.184;5.486;2022-11-23T01:53:41;10.80;99.90
53880;DHT22;39791;53.184;5.486;2022-11-23T01:56:09;10.80;99.90
53880;DHT22;39791;53.184;5.486;2022-11-23T01:58:39;10.60;99.90
53880;DHT22;39791;53.184;5.486;2022-11-23T02:01:06;10.70;99.90
53880;DHT22;39791;53.184;5.486;2022-11-23T02:03:33;10.70;99.90
53880;DHT22;39791;53.184;5.486;2022-11-23T02:06:03;10.80;99.90
53880;DHT22;39791;53.184;5.486;2022-11-23T02:08:30;10.80;99.90
53880;DHT22;39791;53.184;5.486;2022-11-23T02:10:57;10.60;99.90
53880;DHT22;39791;53.184;5.486;2022-11-23T02:13:24;10.80;99.90
53880;DHT22;39791;53.184;5.486;2022-11-23T02:15:50;10.60;99.90
53880;DHT22;39791;53.184;5.486;2022-11-23T02:18:21;10.60;99.90
53880;DHT22;39791;53.184;5.486;2022-11-23T02:20:48;10.80;99.90
53880;DHT22;39791;53.184;5.486;2022-11-23T02:28:18;10.60;99.90
53880;DHT22;39791;53.184;5.486;2022-11-23T02:30:46;10.50;99.90
53880;DHT22;39791;53.184;5.486;2022-11-23T02:33:13;10.70;99.90
53880;DHT22;39791;53.184;5.486;2022-11-23T02:35:48;10.50;99.90
53880;DHT22;39791;53.184;5.486;2022-11-23T02:38:15;10.50;99.90
53880;DHT22;39791;53.184;5.486;2022-11-23T02:40:41;10.80;99.90
53880;DHT22;39791;53.184;5.486;2022-11-23T02:43:06;10.50;99.90
53880;DHT22;39791;53.184;5.486;2022-11-23T02:45:46;10.70;99.90
53880;DHT22;39791;53.184;5.486;2022-11-23T02:48:14;10.60;99.90
53880;DHT22;39791;53.184;5.486;2022-11-23T02:50:40;10.20;99.90
53880;DHT22;39791;53.184;5.486;2022-11-23T02:53:06;11.10;99.90
53880;DHT22;39791;53.184;5.486;2022-11-23T02:55:32;10.50;99.90
53880;DHT22;39791;53.184;5.486;2022-11-23T02:57:57;10.40;99.90
53880;DHT22;39791;53.184;5.486;2022-11-23T03:00:23;10.60;99.90
53880;DHT22;39791;53.184;5.486;2022-11-23T03:02:48;10.50;99.90
53880;DHT22;39791;53.184;5.486;2022-11-23T03:05:14;10.60;99.90
53880;DHT22;39791;53.184;5.486;2022-11-23T03:07:39;10.60;99.90
53880;DHT22;39791;53.184;5.486;2022-11-23T03:10:06;10.30;99.90
53880;DHT22;39791;53.184;5.486;2022-11-23T03:12:31;10.50;99.90
53880;DHT22;39791;53.184;5.486;2022-11-23T03:14:57;10.20;99.90
53880;DHT22;39791;53.184;5.486;2022-11-23T03:17:23;10.30;99.90
53880;DHT22;39791;53.184;5.486;2022-11-23T03:19:48;10.20;99.90
53880;DHT22;39791;53.184;5.486;2022-11-23T03:22:14;10.20;99.90
53880;DHT22;39791;53.184;5.486;2022-11-23T03:24:39;10.20;99.90
53880;DHT22;39791;53.184;5.486;2022-11-23T03:27:05;10.50;99.90
53880;DHT22;39791;53.184;5.486;2022-11-23T03:29:30;10.20;99.90
53880;DHT22;39791;53.184;5.486;2022-11-23T03:31:56;10.40;99.90
53880;DHT22;39791;53.184;5.486;2022-11-23T03:34:22;10.20;99.90
53880;DHT22;39791;53.184;5.486;2022-11-23T03:36:48;10.10;99.90
53880;DHT22;39791;53.184;5.486;2022-11-23T03:39:13;10.30;99.90
53880;DHT22;39791;53.184;5.486;2022-11-23T03:41:39;10.10;99.90
53880;DHT22;39791;53.184;5.486;2022-11-23T03:44:04;10.10;99.90
53880;DHT22;39791;53.184;5.486;2022-11-23T03:46:30;10.00;99.90
53880;DHT22;39791;53.184;5.486;2022-11-23T03:48:55;10.30;99.90
53880;DHT22;39791;53.184;5.486;2022-11-23T03:51:21;10.10;99.90
53880;DHT22;39791;53.184;5.486;2022-11-23T03:53:47;10.40;99.90
53880;DHT22;39791;53.184;5.486;2022-11-23T03:56:13;10.10;99.90
53880;DHT22;39791;53.184;5.486;2022-11-23T03:58:38;10.10;99.90
53880;DHT22;39791;53.184;5.486;2022-11-23T04:01:04;10.10;99.90
53880;DHT22;39791;53.184;5.486;2022-11-23T04:03:30;10.40;99.90
53880;DHT22;39791;53.184;5.486;2022-11-23T04:05:55;10.20;99.90
53880;DHT22;39791;53.184;5.486;2022-11-23T04:08:21;10.40;99.90
53880;DHT22;39791;53.184;5.486;2022-11-23T04:10:46;10.00;99.90
53880;DHT22;39791;53.184;5.486;2022-11-23T04:13:12;10.10;99.90
53880;DHT22;39791;53.184;5.486;2022-11-23T04:15:37;9.90;99.90
53880;DHT22;39791;53.184;5.486;2022-11-23T04:18:03;10.10;99.90
53880;DHT22;39791;53.184;5.486;2022-11-23T04:20:29;9.80;99.90
53880;DHT22;39791;53.184;5.486;2022-11-23T04:22:54;9.90;99.90
53880;DHT22;39791;53.184;5.486;2022-11-23T04:25:20;9.90;99.90
53880;DHT22;39791;53.184;5.486;2022-11-23T04:27:46;9.90;99.90
53880;DHT22;39791;53.184;5.486;2022-11-23T04:30:11;9.90;99.90
53880;DHT22;39791;53.184;5.486;2022-11-23T04:32:37;10.10;99.90
53880;DHT22;39791;53.184;5.486;2022-11-23T04:35:03;10.00;99.90
53880;DHT22;39791;53.184;5.486;2022-11-23T04:37:29;9.90;99.90
53880;DHT22;39791;53.184;5.486;2022-11-23T04:39:54;10.20;99.90
53880;DHT22;39791;53.184;5.486;2022-11-23T04:42:20;10.20;99.90
53880;DHT22;39791;53.184;5.486;2022-11-23T04:44:46;9.90;99.90
53880;DHT22;39791;53.184;5.486;2022-11-23T04:47:11;9.90;99.90
53880;DHT22;39791;53.184;5.486;2022-11-23T04:49:37;10.10;99.90
53880;DHT22;39791;53.184;5.486;2022-11-23T04:52:03;10.00;99.90
53880;DHT22;39791;53.184;5.486;2022-11-23T04:54:29;10.10;99.90
53880;DHT22;39791;53.184;5.486;2022-11-23T04:56:55;10.10;99.90
53880;DHT22;39791;53.184;5.486;2022-11-23T04:59:21;9.90;99.90
53880;DHT22;39791;53.184;5.486;2022-11-23T05:01:47;9.80;99.90
53880;DHT22;39791;53.184;5.486;2022-11-23T05:04:13;9.90;99.90
53880;DHT22;39791;53.184;5.486;2022-11-23T05:06:39;10.00;99.90
53880;DHT22;39791;53.184;5.486;2022-11-23T05:09:04;10.00;99.90
53880;DHT22;39791;53.184;5.486;2022-11-23T05:11:30;10.10;99.90
53880;DHT22;39791;53.184;5.486;2022-11-23T05:13:55;10.10;99.90
53880;DHT22;39791;53.184;5.486;2022-11-23T05:16:21;10.40;99.90
53880;DHT22;39791;53.184;5.486;2022-11-23T05:18:46;10.10;99.90
53880;DHT22;39791;53.184;5.486;2022-11-23T05:21:12;10.30;99.90
53880;DHT22;39791;53.184;5.486;2022-11-23T05:23:37;10.40;99.90
53880;DHT22;39791;53.184;5.486;2022-11-23T05:26:03;10.30;99.90
53880;DHT22;39791;53.184;5.486;2022-11-23T05:28:29;10.10;99.90
53880;DHT22;39791;53.184;5.486;2022-11-23T05:30:54;10.10;99.90
53880;DHT22;39791;53.184;5.486;2022-11-23T05:33:20;10.40;99.90
53880;DHT22;39791;53.184;5.486;2022-11-23T05:35:45;10.30;99.90
53880;DHT22;39791;53.184;5.486;2022-11-23T05:38:11;10.40;99.90
53880;DHT22;39791;53.184;5.486;2022-11-23T05:40:36;10.20;99.90
53880;DHT22;39791;53.184;5.486;2022-11-23T05:43:03;10.10;99.90
53880;DHT22;39791;53.184;5.486;2022-11-23T05:45:28;10.30;99.90
53880;DHT22;39791;53.184;5.486;2022-11-23T05:47:56;10.50;99.90
53880;DHT22;39791;53.184;5.486;2022-11-23T05:50:24;10.20;99.90
53880;DHT22;39791;53.184;5.486;2022-11-23T05:52:50;10.50;99.90
53880;DHT22;39791;53.184;5.486;2022-11-23T05:55:16;10.40;99.90
53880;DHT22;39791;53.184;5.486;2022-11-23T05:57:42;10.40;99.90
53880;DHT22;39791;53.184;5.486;2022-11-23T06:00:09;10.20;99.90
53880;DHT22;39791;53.184;5.486;2022-11-23T06:02:36;10.40;99.90
53880;DHT22;39791;53.184;5.486;2022-11-23T06:05:02;10.20;99.90
53880;DHT22;39791;53.184;5.486;2022-11-23T06:07:28;10.40;99.90
53880;DHT22;39791;53.184;5.486;2022-11-23T06:09:53;10.50;99.90
53880;DHT22;39791;53.184;5.486;2022-11-23T06:12:19;10.60;99.90
53880;DHT22;39791;53.184;5.486;2022-11-23T06:14:44;10.30;99.90
53880;DHT22;39791;53.184;5.486;2022-11-23T06:17:10;10.60;99.90
53880;DHT22;39791;53.184;5.486;2022-11-23T06:19:35;10.40;99.90
53880;DHT22;39791;53.184;5.486;2022-11-23T06:22:01;10.50;99.90
53880;DHT22;39791;53.184;5.486;2022-11-23T06:24:26;10.50;99.90
53880;DHT22;39791;53.184;5.486;2022-11-23T06:26:52;10.50;99.90
53880;DHT22;39791;53.184;5.486;2022-11-23T06:29:19;10.40;99.90
53880;DHT22;39791;53.184;5.486;2022-11-23T06:31:45;10.70;99.90
53880;DHT22;39791;53.184;5.486;2022-11-23T06:34:11;10.60;99.90
53880;DHT22;39791;53.184;5.486;2022-11-23T06:36:36;10.70;99.90
53880;DHT22;39791;53.184;5.486;2022-11-23T06:39:02;10.70;99.90
53880;DHT22;39791;53.184;5.486;2022-11-23T06:41:28;10.70;99.90
53880;DHT22;39791;53.184;5.486;2022-11-23T06:43:53;10.60;99.90
53880;DHT22;39791;53.184;5.486;2022-11-23T06:46:19;10.70;99.90
53880;DHT22;39791;53.184;5.486;2022-11-23T06:48:45;10.60;99.90
53880;DHT22;39791;53.184;5.486;2022-11-23T06:51:12;10.70;99.90
53880;DHT22;39791;53.184;5.486;2022-11-23T06:53:38;10.70;99.90
53880;DHT22;39791;53.184;5.486;2022-11-23T06:56:04;10.50;99.90
53880;DHT22;39791;53.184;5.486;2022-11-23T06:58:29;10.70;99.90
53880;DHT22;39791;53.184;5.486;2022-11-23T07:00:59;10.70;99.90
53880;DHT22;39791;53.184;5.486;2022-11-23T07:03:26;10.70;99.90
53880;DHT22;39791;53.184;5.486;2022-11-23T07:05:52;10.80;99.90
53880;DHT22;39791;53.184;5.486;2022-11-23T07:08:17;10.70;99.90
53880;DHT22;39791;53.184;5.486;2022-11-23T07:10:43;10.70;99.90
53880;DHT22;39791;53.184;5.486;2022-11-23T07:13:10;10.50;99.90
53880;DHT22;39791;53.184;5.486;2022-11-23T07:15:36;10.70;99.90
53880;DHT22;39791;53.184;5.486;2022-11-23T07:18:02;10.70;99.90
53880;DHT22;39791;53.184;5.486;2022-11-23T07:20:27;10.60;99.90
53880;DHT22;39791;53.184;5.486;2022-11-23T07:23:07;10.50;99.90
53880;DHT22;39791;53.184;5.486;2022-11-23T07:25:35;10.70;99.90
53880;DHT22;39791;53.184;5.486;2022-11-23T07:28:03;10.60;99.90
53880;DHT22;39791;53.184;5.486;2022-11-23T07:30:30;10.60;99.90
53880;DHT22;39791;53.184;5.486;2022-11-23T07:33:00;10.80;99.90
53880;DHT22;39791;53.184;5.486;2022-11-23T07:35:26;10.80;99.90
53880;DHT22;39791;53.184;5.486;2022-11-23T07:37:52;10.90;99.90
53880;DHT22;39791;53.184;5.486;2022-11-23T07:40:18;10.80;99.90
53880;DHT22;39791;53.184;5.486;2022-11-23T07:42:43;10.90;99.90
53880;DHT22;39791;53.184;5.486;2022-11-23T07:45:09;10.90;99.90
53880;DHT22;39791;53.184;5.486;2022-11-23T07:47:35;10.70;99.90
53880;DHT22;39791;53.184;5.486;2022-11-23T07:50:01;10.70;99.90
53880;DHT22;39791;53.184;5.486;2022-11-23T07:52:28;10.70;99.90
53880;DHT22;39791;53.184;5.486;2022-11-23T07:54:53;10.70;99.90
53880;DHT22;39791;53.184;5.486;2022-11-23T07:57:19;10.90;99.90
53880;DHT22;39791;53.184;5.486;2022-11-23T07:59:44;10.80;99.90
53880;DHT22;39791;53.184;5.486;2022-11-23T08:02:13;10.90;99.90
53880;DHT22;39791;53.184;5.486;2022-11-23T08:04:39;10.90;99.90
53880;DHT22;39791;53.184;5.486;2022-11-23T08:07:04;10.90;99.90
53880;DHT22;39791;53.184;5.486;2022-11-23T08:09:30;10.70;99.90
53880;DHT22;39791;53.184;5.486;2022-11-23T08:11:56;10.90;99.90
53880;DHT22;39791;53.184;5.486;2022-11-23T08:14:21;10.90;99.90
53880;DHT22;39791;53.184;5.486;2022-11-23T08:16:49;10.90;99.90
53880;DHT22;39791;53.184;5.486;2022-11-23T08:19:15;10.80;99.90
53880;DHT22;39791;53.184;5.486;2022-11-23T08:21:41;10.80;99.90
53880;DHT22;39791;53.184;5.486;2022-11-23T08:24:07;10.80;99.90
53880;DHT22;39791;53.184;5.486;2022-11-23T08:26:32;11.00;99.90
53880;DHT22;39791;53.184;5.486;2022-11-23T08:28:58;10.90;99.90
53880;DHT22;39791;53.184;5.486;2022-11-23T08:31:23;10.90;99.90
53880;DHT22;39791;53.184;5.486;2022-11-23T08:33:49;10.90;99.90
53880;DHT22;39791;53.184;5.486;2022-11-23T08:36:15;10.90;99.90
53880;DHT22;39791;53.184;5.486;2022-11-23T08:38:40;10.90;99.90
53880;DHT22;39791;53.184;5.486;2022-11-23T08:41:06;10.90;99.90
53880;DHT22;39791;53.184;5.486;2022-11-23T08:43:32;11.00;99.90
53880;DHT22;39791;53.184;5.486;2022-11-23T08:45:59;11.20;99.90
53880;DHT22;39791;53.184;5.486;2022-11-23T08:48:25;11.00;99.90
53880;DHT22;39791;53.184;5.486;2022-11-23T08:50:52;11.40;99.90
53880;DHT22;39791;53.184;5.486;2022-11-23T08:53:17;11.00;99.90
53880;DHT22;39791;53.184;5.486;2022-11-23T08:55:43;11.20;99.90
53880;DHT22;39791;53.184;5.486;2022-11-23T08:58:08;11.00;99.90
53880;DHT22;39791;53.184;5.486;2022-11-23T09:00:34;11.00;99.90
53880;DHT22;39791;53.184;5.486;2022-11-23T09:03:00;10.90;99.90
53880;DHT22;39791;53.184;5.486;2022-11-23T09:05:27;11.50;99.90
53880;DHT22;39791;53.184;5.486;2022-11-23T09:08:00;10.90;99.90
53880;DHT22;39791;53.184;5.486;2022-11-23T09:10:26;11.10;99.90
53880;DHT22;39791;53.184;5.486;2022-11-23T09:12:51;10.90;99.90
53880;DHT22;39791;53.184;5.486;2022-11-23T09:15:17;10.90;99.90
53880;DHT22;39791;53.184;5.486;2022-11-23T09:17:43;10.90;99.90
53880;DHT22;39791;53.184;5.486;2022-11-23T09:20:10;11.00;99.90
53880;DHT22;39791;53.184;5.486;2022-11-23T09:22:35;10.90;99.90
53880;DHT22;39791;53.184;5.486;2022-11-23T09:25:02;10.90;99.90
53880;DHT22;39791;53.184;5.486;2022-11-23T09:27:28;11.10;99.90
53880;DHT22;39791;53.184;5.486;2022-11-23T09:29:54;11.00;99.90
53880;DHT22;39791;53.184;5.486;2022-11-23T09:32:19;10.90;99.90
53880;DHT22;39791;53.184;5.486;2022-11-23T09:34:45;11.00;99.90
53880;DHT22;39791;53.184;5.486;2022-11-23T09:37:11;11.20;99.90
53880;DHT22;39791;53.184;5.486;2022-11-23T09:39:37;11.10;99.90
53880;DHT22;39791;53.184;5.486;2022-11-23T09:42:26;11.00;99.90
53880;DHT22;39791;53.184;5.486;2022-11-23T09:51:16;11.10;99.90
53880;DHT22;39791;53.184;5.486;2022-11-23T09:53:54;11.20;99.90
53880;DHT22;39791;53.184;5.486;2022-11-23T09:56:27;11.20;99.90
53880;DHT22;39791;53.184;5.486;2022-11-23T09:58:58;11.20;99.90
53880;DHT22;39791;53.184;5.486;2022-11-23T10:01:24;11.30;99.90
53880;DHT22;39791;53.184;5.486;2022-11-23T10:03:55;11.30;99.90
53880;DHT22;39791;53.184;5.486;2022-11-23T10:06:27;11.50;99.90
53880;DHT22;39791;53.184;5.486;2022-11-23T10:14:53;11.60;99.90
53880;DHT22;39791;53.184;5.486;2022-11-23T10:18:34;11.60;79.50
53880;DHT22;39791;53.184;5.486;2022-11-23T10:20:51;11.50;99.90
53880;DHT22;39791;53.184;5.486;2022-11-23T10:23:26;11.50;99.90
53880;DHT22;39791;53.184;5.486;2022-11-23T10:25:55;11.40;99.90
53880;DHT22;39791;53.184;5.486;2022-11-23T10:28:22;11.40;41.50
53880;DHT22;39791;53.184;5.486;2022-11-23T10:30:54;11.50;1.00
53880;DHT22;39791;53.184;5.486;2022-11-23T10:33:31;11.50;99.90
53880;DHT22;39791;53.184;5.486;2022-11-23T10:35:58;11.40;99.90
53880;DHT22;39791;53.184;5.486;2022-11-23T10:38:27;11.50;99.90
53880;DHT22;39791;53.184;5.486;2022-11-23T10:40:56;11.50;99.90
53880;DHT22;39791;53.184;5.486;2022-11-23T10:43:27;11.60;29.40
53880;DHT22;39791;53.184;5.486;2022-11-23T10:51:51;11.60;99.90
53880;DHT22;39791;53.184;5.486;2022-11-23T10:54:27;11.70;1.00
53880;DHT22;39791;53.184;5.486;2022-11-23T10:56:54;11.60;99.90
53880;DHT22;39791;53.184;5.486;2022-11-23T10:59:30;11.70;99.90
53880;DHT22;39791;53.184;5.486;2022-11-23T11:04:25;11.90;1.00
53880;DHT22;39791;53.184;5.486;2022-11-23T11:06:50;11.90;99.90
53880;DHT22;39791;53.184;5.486;2022-11-23T11:09:19;11.70;1.00
53880;DHT22;39791;53.184;5.486;2022-11-23T11:11:47;11.70;1.00
53880;DHT22;39791;53.184;5.486;2022-11-23T11:14:20;11.50;99.90
53880;DHT22;39791;53.184;5.486;2022-11-23T11:16:55;11.50;99.90
53880;DHT22;39791;53.184;5.486;2022-11-23T11:19:27;11.60;99.90
53880;DHT22;39791;53.184;5.486;2022-11-23T11:21:53;11.60;99.90
53880;DHT22;39791;53.184;5.486;2022-11-23T11:24:24;11.60;99.90
53880;DHT22;39791;53.184;5.486;2022-11-23T11:26:58;11.50;1.00
53880;DHT22;39791;53.184;5.486;2022-11-23T11:34:57;11.40;99.90
53880;DHT22;39791;53.184;5.486;2022-11-23T11:37:41;11.40;99.90
53880;DHT22;39791;53.184;5.486;2022-11-23T11:40:18;11.70;99.40
53880;DHT22;39791;53.184;5.486;2022-11-23T11:43:09;11.70;99.90
53880;DHT22;39791;53.184;5.486;2022-11-23T11:45:41;11.90;1.00
53880;DHT22;39791;53.184;5.486;2022-11-23T11:48:21;11.90;99.90
53880;DHT22;39791;53.184;5.486;2022-11-23T11:51:25;11.70;99.90
53880;DHT22;39791;53.184;5.486;2022-11-23T11:54:17;11.70;99.90
53880;DHT22;39791;53.184;5.486;2022-11-23T11:56:48;11.70;1.00
53880;DHT22;39791;53.184;5.486;2022-11-23T11:59:27;11.60;1.00
53880;DHT22;39791;53.184;5.486;2022-11-23T12:02:11;11.40;1.00
53880;DHT22;39791;53.184;5.486;2022-11-23T12:04:45;11.40;1.00
53880;DHT22;39791;53.184;5.486;2022-11-23T12:07:28;11.50;99.90
53880;DHT22;39791;53.184;5.486;2022-11-23T12:09:59;11.60;99.90
53880;DHT22;39791;53.184;5.486;2022-11-23T12:12:26;11.60;99.90
53880;DHT22;39791;53.184;5.486;2022-11-23T12:14:52;11.50;99.90
53880;DHT22;39791;53.184;5.486;2022-11-23T12:17:40;11.50;99.90
53880;DHT22;39791;53.184;5.486;2022-11-23T12:20:34;11.50;99.90
53880;DHT22;39791;53.184;5.486;2022-11-23T12:23:22;11.50;99.90
53880;DHT22;39791;53.184;5.486;2022-11-23T12:39:51;11.40;30.40
53880;DHT22;39791;53.184;5.486;2022-11-23T12:42:40;11.50;55.60
53880;DHT22;39791;53.184;5.486;2022-11-23T12:56:36;11.30;79.80
53880;DHT22;39791;53.184;5.486;2022-11-23T12:59:08;11.30;99.90
53880;DHT22;39791;53.184;5.486;2022-11-23T13:01:38;11.20;75.00
53880;DHT22;39791;53.184;5.486;2022-11-23T13:10:19;11.20;1.00
53880;DHT22;39791;53.184;5.486;2022-11-23T13:16:00;11.10;1.00
53880;DHT22;39791;53.184;5.486;2022-11-23T13:33:25;10.70;1.00
53880;DHT22;39791;53.184;5.486;2022-11-23T13:40:26;10.60;1.00
53880;DHT22;39791;53.184;5.486;2022-11-23T13:42:55;10.60;1.00
53880;DHT22;39791;53.184;5.486;2022-11-23T13:45:24;10.60;1.00
53880;DHT22;39791;53.184;5.486;2022-11-23T13:50:36;10.50;1.00
53880;DHT22;39791;53.184;5.486;2022-11-23T13:53:04;10.50;1.00
53880;DHT22;39791;53.184;5.486;2022-11-23T13:55:43;10.50;1.00
53880;DHT22;39791;53.184;5.486;2022-11-23T14:00:55;10.50;1.00
53880;DHT22;39791;53.184;5.486;2022-11-23T14:03:53;10.50;1.00
53880;DHT22;39791;53.184;5.486;2022-11-23T14:06:44;10.40;1.00
53880;DHT22;39791;53.184;5.486;2022-11-23T14:09:17;10.40;1.00
53880;DHT22;39791;53.184;5.486;2022-11-23T14:12:48;10.40;1.00
53880;DHT22;39791;53.184;5.486;2022-11-23T14:15:02;10.30;1.00
53880;DHT22;39791;53.184;5.486;2022-11-23T14:31:59;10.30;1.00
53880;DHT22;39791;53.184;5.486;2022-11-23T14:43:23;10.50;1.00
53880;DHT22;39791;53.184;5.486;2022-11-23T14:45:51;10.60;1.00
53880;DHT22;39791;53.184;5.486;2022-11-23T14:48:32;10.60;1.00
53880;DHT22;39791;53.184;5.486;2022-11-23T14:51:04;10.60;2.90
53880;DHT22;39791;53.184;5.486;2022-11-23T14:53:33;10.50;57.70
53880;DHT22;39791;53.184;5.486;2022-11-23T14:55:59;10.40;99.90
53880;DHT22;39791;53.184;5.486;2022-11-23T14:58:27;10.40;99.90
53880;DHT22;39791;53.184;5.486;2022-11-23T15:00:58;10.30;99.90
53880;DHT22;39791;53.184;5.486;2022-11-23T15:03:30;10.20;1.00
53880;DHT22;39791;53.184;5.486;2022-11-23T15:06:12;10.20;39.00
53880;DHT22;39791;53.184;5.486;2022-11-23T15:09:01;10.10;99.90
53880;DHT22;39791;53.184;5.486;2022-11-23T15:11:29;10.10;99.90
53880;DHT22;39791;53.184;5.486;2022-11-23T15:13:57;10.10;1.00
53880;DHT22;39791;53.184;5.486;2022-11-23T15:16:38;10.10;31.30
53880;DHT22;39791;53.184;5.486;2022-11-23T15:19:39;10.10;99.90
53880;DHT22;39791;53.184;5.486;2022-11-23T15:22:13;10.00;99.90
53880;DHT22;39791;53.184;5.486;2022-11-23T15:24:40;10.10;99.90
53880;DHT22;39791;53.184;5.486;2022-11-23T15:27:06;10.00;99.90
53880;DHT22;39791;53.184;5.486;2022-11-23T15:29:35;10.10;99.90
53880;DHT22;39791;53.184;5.486;2022-11-23T15:32:03;10.10;1.00
53880;DHT22;39791;53.184;5.486;2022-11-23T15:34:29;10.10;19.60
53880;DHT22;39791;53.184;5.486;2022-11-23T15:36:55;10.10;1.00
53880;DHT22;39791;53.184;5.486;2022-11-23T15:39:23;10.10;4.00
53880;DHT22;39791;53.184;5.486;2022-11-23T15:41:52;10.10;99.90
53880;DHT22;39791;53.184;5.486;2022-11-23T15:44:28;10.00;99.90
53880;DHT22;39791;53.184;5.486;2022-11-23T15:47:02;10.00;99.90
53880;DHT22;39791;53.184;5.486;2022-11-23T15:49:30;10.10;1.00
53880;DHT22;39791;53.184;5.486;2022-11-23T15:51:59;10.00;99.90
53880;DHT22;39791;53.184;5.486;2022-11-23T15:54:30;10.10;1.00
53880;DHT22;39791;53.184;5.486;2022-11-23T15:56:58;9.90;99.90
53880;DHT22;39791;53.184;5.486;2022-11-23T15:59:38;9.90;99.90
53880;DHT22;39791;53.184;5.486;2022-11-23T16:02:11;10.10;99.90
53880;DHT22;39791;53.184;5.486;2022-11-23T16:04:39;9.80;1.00
53880;DHT22;39791;53.184;5.486;2022-11-23T16:07:32;10.00;99.90
53880;DHT22;39791;53.184;5.486;2022-11-23T16:10:20;9.80;99.90
53880;DHT22;39791;53.184;5.486;2022-11-23T16:12:48;9.80;99.90
53880;DHT22;39791;53.184;5.486;2022-11-23T16:15:37;10.00;1.00
53880;DHT22;39791;53.184;5.486;2022-11-23T16:18:13;9.90;1.00
53880;DHT22;39791;53.184;5.486;2022-11-23T16:20:42;9.80;1.00
53880;DHT22;39791;53.184;5.486;2022-11-23T16:23:15;9.90;22.60
53880;DHT22;39791;53.184;5.486;2022-11-23T16:25:42;9.80;94.60
53880;DHT22;39791;53.184;5.486;2022-11-23T16:28:28;9.90;99.90
53880;DHT22;39791;53.184;5.486;2022-11-23T16:30:54;10.00;99.90
53880;DHT22;39791;53.184;5.486;2022-11-23T16:33:20;9.90;99.90
53880;DHT22;39791;53.184;5.486;2022-11-23T16:35:46;9.90;99.90
53880;DHT22;39791;53.184;5.486;2022-11-23T16:38:12;10.10;99.90
53880;DHT22;39791;53.184;5.486;2022-11-23T16:40:38;10.20;99.90
53880;DHT22;39791;53.184;5.486;2022-11-23T16:43:05;10.20;99.90
53880;DHT22;39791;53.184;5.486;2022-11-23T16:45:31;10.20;99.90
53880;DHT22;39791;53.184;5.486;2022-11-23T16:48:01;10.20;99.90
53880;DHT22;39791;53.184;5.486;2022-11-23T16:50:32;10.30;99.90
53880;DHT22;39791;53.184;5.486;2022-11-23T16:53:01;10.30;99.90
53880;DHT22;39791;53.184;5.486;2022-11-23T16:55:32;10.30;99.90
53880;DHT22;39791;53.184;5.486;2022-11-23T16:57:58;10.00;99.90
53880;DHT22;39791;53.184;5.486;2022-11-23T17:00:23;10.30;99.90
53880;DHT22;39791;53.184;5.486;2022-11-23T17:02:49;10.10;99.90
53880;DHT22;39791;53.184;5.486;2022-11-23T17:05:16;10.30;99.90
53880;DHT22;39791;53.184;5.486;2022-11-23T17:07:42;9.90;99.90
53880;DHT22;39791;53.184;5.486;2022-11-23T17:10:09;10.20;99.90
53880;DHT22;39791;53.184;5.486;2022-11-23T17:12:36;10.00;99.90
53880;DHT22;39791;53.184;5.486;2022-11-23T17:15:03;10.30;99.90
53880;DHT22;39791;53.184;5.486;2022-11-23T17:17:29;10.00;99.90
53880;DHT22;39791;53.184;5.486;2022-11-23T17:19:54;10.10;99.90
53880;DHT22;39791;53.184;5.486;2022-11-23T17:22:20;10.20;99.90
53880;DHT22;39791;53.184;5.486;2022-11-23T17:24:48;10.30;99.90
53880;DHT22;39791;53.184;5.486;2022-11-23T17:27:22;10.10;99.90
53880;DHT22;39791;53.184;5.486;2022-11-23T17:29:56;10.20;99.90
53880;DHT22;39791;53.184;5.486;2022-11-23T17:32:23;10.20;99.90
53880;DHT22;39791;53.184;5.486;2022-11-23T17:34:48;10.10;99.90
53880;DHT22;39791;53.184;5.486;2022-11-23T17:37:18;10.30;99.90
53880;DHT22;39791;53.184;5.486;2022-11-23T17:39:46;10.30;99.90